Terminal Aerodrome Forecast
Issued by NWS Charleston, SC

Home | Current Version | Previous Version | Text Only | Print | Product List | Glossary On
Versions: 1 2 3 4 5 6 7 8 9 10 11 12
821
FTUS42 KCHS 132325
TAFCHS
TAF
KCHS 132325Z 1400/1424 22007KT P6SM SKC
     FM140600 25012G18KT P6SM SKC
     FM141800 23009KT P6SM SKC=

USA.gov is the U.S. government's official web portal to all federal, state and local government web resources and services.